createdAt,value
2022-10-08T00:01:31.969Z,12.40
2022-10-08T00:04:19.081Z,9.30
2022-10-08T00:07:06.054Z,8.17
2022-10-08T00:09:52.966Z,12.23
2022-10-08T00:12:40.042Z,11.00
2022-10-08T00:15:27.823Z,13.00
2022-10-08T00:18:14.806Z,8.50
2022-10-08T00:21:14.484Z,9.87
2022-10-08T00:24:02.347Z,6.87
2022-10-08T00:26:51.029Z,11.57
2022-10-08T00:29:38.029Z,11.90
2022-10-08T00:32:25.033Z,6.60
2022-10-08T00:35:11.956Z,9.40
2022-10-08T00:37:59.002Z,11.50
2022-10-08T00:40:46.070Z,9.20
2022-10-08T00:43:48.930Z,9.50
2022-10-08T00:46:42.510Z,9.90
2022-10-08T00:49:29.434Z,10.93
2022-10-08T00:52:18.401Z,13.50
2022-10-08T00:55:07.857Z,10.57
2022-10-08T00:58:02.286Z,11.87
2022-10-08T01:00:50.914Z,11.43
2022-10-08T01:03:37.945Z,10.10
2022-10-08T01:06:30.692Z,9.23
2022-10-08T01:09:29.685Z,12.23
2022-10-08T01:12:38.232Z,8.17
2022-10-08T01:15:48.124Z,12.43
2022-10-08T01:19:04.844Z,18.10
2022-10-08T01:22:13.065Z,14.17
2022-10-08T01:25:34.946Z,7.80
2022-10-08T01:28:48.613Z,13.83
2022-10-08T01:31:45.759Z,10.50
2022-10-08T01:34:56.297Z,10.40
2022-10-08T01:37:45.278Z,7.00
2022-10-08T01:40:37.724Z,10.93
2022-10-08T01:43:32.717Z,8.43
2022-10-08T01:46:27.672Z,10.97
2022-10-08T01:49:22.108Z,12.57
2022-10-08T01:52:16.417Z,12.40
2022-10-08T01:55:08.484Z,11.00
2022-10-08T01:58:01.196Z,10.87
2022-10-08T02:00:51.246Z,11.03
2022-10-08T02:03:38.450Z,8.70
2022-10-08T02:06:27.616Z,14.00
2022-10-08T02:09:15.134Z,11.50
2022-10-08T02:12:02.547Z,14.07
2022-10-08T02:14:55.148Z,14.27
2022-10-08T02:18:06.330Z,8.40
2022-10-08T02:20:59.152Z,11.33
2022-10-08T02:24:12.237Z,11.93
2022-10-08T02:27:03.785Z,11.57
2022-10-08T02:30:04.062Z,12.90
2022-10-08T02:33:00.493Z,11.20
2022-10-08T02:35:52.135Z,11.97
2022-10-08T02:38:52.269Z,14.40
2022-10-08T02:41:44.699Z,13.30
2022-10-08T02:44:40.242Z,12.50
2022-10-08T02:47:31.273Z,14.53
2022-10-08T02:50:23.423Z,14.53
2022-10-08T02:53:14.753Z,13.47
2022-10-08T02:56:05.846Z,16.70
2022-10-08T02:58:53.162Z,12.77
2022-10-08T03:01:59.529Z,13.70
2022-10-08T03:05:17.630Z,13.57
2022-10-08T03:08:06.514Z,17.53
2022-10-08T03:10:53.677Z,9.10
2022-10-08T03:13:45.989Z,14.67
2022-10-08T03:16:38.872Z,13.03
2022-10-08T03:19:25.965Z,8.67
2022-10-08T03:22:12.997Z,10.60
2022-10-08T03:24:59.954Z,13.87
2022-10-08T03:27:46.947Z,16.33
2022-10-08T03:30:33.987Z,14.03
2022-10-08T03:33:20.943Z,11.07
2022-10-08T03:36:07.907Z,12.40
2022-10-08T03:38:55.007Z,8.73
2022-10-08T03:41:41.930Z,11.27
2022-10-08T03:44:28.916Z,13.00
2022-10-08T03:47:15.832Z,11.33
2022-10-08T03:50:02.880Z,14.53
2022-10-08T03:52:50.278Z,14.27
2022-10-08T03:55:37.444Z,12.57
2022-10-08T03:58:24.377Z,14.50
2022-10-08T04:01:17.241Z,13.23
2022-10-08T04:04:04.510Z,14.77
2022-10-08T04:06:51.414Z,15.83
2022-10-08T04:09:38.374Z,16.93
2022-10-08T04:12:25.304Z,10.47
2022-10-08T04:15:12.309Z,15.53
2022-10-08T04:17:59.221Z,13.33
2022-10-08T04:20:46.190Z,14.27
2022-10-08T04:23:35.825Z,17.97
2022-10-08T04:26:22.829Z,12.70
2022-10-08T04:29:12.518Z,13.60
2022-10-08T04:31:59.501Z,17.73
2022-10-08T04:34:46.432Z,17.67
2022-10-08T04:37:33.409Z,17.20
2022-10-08T04:40:20.375Z,17.60
2022-10-08T04:43:07.368Z,12.67
2022-10-08T04:45:54.300Z,14.43
2022-10-08T04:48:47.477Z,14.67
2022-10-08T04:51:34.415Z,12.30
2022-10-08T04:54:21.791Z,13.87
2022-10-08T04:57:08.754Z,11.63
2022-10-08T05:00:17.028Z,17.17
2022-10-08T05:03:02.594Z,18.27
2022-10-08T05:05:49.587Z,20.17
2022-10-08T05:08:37.069Z,15.77
2022-10-08T05:11:25.731Z,18.07
2022-10-08T05:14:13.375Z,17.40
2022-10-08T05:17:00.390Z,12.87
2022-10-08T05:19:47.322Z,18.40
2022-10-08T05:22:34.407Z,20.93
2022-10-08T05:25:21.425Z,20.50
2022-10-08T05:28:08.430Z,18.27
2022-10-08T05:31:02.026Z,22.07
2022-10-08T05:33:49.073Z,20.33
2022-10-08T05:36:36.997Z,18.53
2022-10-08T05:39:24.112Z,20.00
2022-10-08T05:42:11.163Z,22.07
2022-10-08T05:44:58.095Z,19.97
2022-10-08T05:47:48.092Z,19.53
2022-10-08T05:50:36.749Z,15.73
2022-10-08T05:53:23.717Z,17.57
2022-10-08T05:56:12.360Z,16.27
2022-10-08T05:58:59.394Z,16.50
2022-10-08T06:01:46.737Z,16.47
2022-10-08T06:04:33.734Z,13.40
2022-10-08T06:07:20.699Z,15.30
2022-10-08T06:10:08.189Z,19.10
2022-10-08T06:12:55.099Z,16.53
2022-10-08T06:15:42.053Z,22.57
2022-10-08T06:18:34.375Z,17.93
2022-10-08T06:21:24.155Z,17.77
2022-10-08T06:24:12.332Z,19.73
2022-10-08T06:26:59.329Z,16.80
2022-10-08T06:29:46.380Z,17.27
2022-10-08T06:32:33.789Z,15.13
2022-10-08T06:35:20.782Z,15.60
2022-10-08T06:38:07.859Z,16.43
2022-10-08T06:40:57.802Z,17.07
2022-10-08T06:43:44.790Z,16.33
2022-10-08T06:46:32.861Z,20.80
2022-10-08T06:49:20.127Z,19.83
2022-10-08T06:52:07.199Z,16.40
2022-10-08T06:54:54.179Z,18.80
2022-10-08T06:57:41.229Z,23.63
2022-10-08T07:00:28.460Z,18.77
2022-10-08T07:03:15.419Z,17.40
2022-10-08T07:06:11.327Z,21.10
2022-10-08T07:09:00.506Z,19.70
2022-10-08T07:11:47.513Z,19.00
2022-10-08T07:14:34.490Z,21.00
2022-10-08T07:17:22.660Z,19.97
2022-10-08T07:20:09.797Z,20.47
2022-10-08T07:22:56.792Z,22.03
2022-10-08T07:25:43.737Z,20.13
2022-10-08T07:28:34.364Z,21.30
2022-10-08T07:31:28.435Z,20.30
2022-10-08T07:34:15.693Z,16.70
2022-10-08T07:37:02.624Z,22.27
2022-10-08T07:39:49.738Z,22.87
2022-10-08T07:42:36.806Z,25.47
2022-10-08T07:45:24.959Z,18.77
2022-10-08T07:48:13.152Z,21.93
2022-10-08T07:51:27.200Z,19.67
2022-10-08T07:57:22.266Z,19.80
2022-10-08T08:00:09.813Z,20.90
2022-10-08T08:02:56.783Z,20.77
2022-10-08T08:05:43.735Z,19.73
2022-10-08T08:08:31.326Z,16.63
2022-10-08T08:11:20.440Z,22.43
2022-10-08T08:14:08.220Z,15.17
2022-10-08T08:16:55.398Z,17.43
2022-10-08T08:19:42.443Z,15.10
2022-10-08T08:22:29.675Z,17.67
2022-10-08T08:25:16.723Z,17.87
2022-10-08T08:28:03.741Z,18.70
2022-10-08T08:30:50.744Z,14.53
2022-10-08T08:33:38.136Z,15.50
2022-10-08T08:36:31.176Z,18.27
2022-10-08T08:39:21.366Z,14.50
2022-10-08T08:42:43.436Z,11.80
2022-10-08T08:45:46.539Z,12.37
2022-10-08T08:48:37.945Z,12.17
2022-10-08T08:51:24.949Z,12.83
2022-10-08T08:54:11.961Z,17.03
2022-10-08T08:57:20.566Z,13.20
2022-10-08T09:00:13.293Z,13.83
2022-10-08T09:03:21.890Z,13.17
2022-10-08T09:06:13.263Z,12.43
2022-10-08T09:09:07.527Z,10.47
2022-10-08T09:11:55.269Z,8.87
2022-10-08T09:14:46.158Z,14.17
2022-10-08T09:17:36.503Z,8.57
2022-10-08T09:20:25.678Z,12.00
2022-10-08T09:23:16.533Z,11.03
2022-10-08T09:26:24.488Z,11.13
2022-10-08T09:29:32.174Z,11.73
2022-10-08T09:32:21.889Z,8.83
2022-10-08T09:35:10.378Z,11.93
2022-10-08T09:37:59.859Z,10.33
2022-10-08T09:41:06.886Z,9.70
2022-10-08T09:44:12.756Z,9.63
2022-10-08T09:47:21.070Z,9.97
2022-10-08T09:50:19.278Z,9.60
2022-10-08T09:53:06.373Z,11.67
2022-10-08T09:56:02.339Z,8.40
2022-10-08T09:58:53.223Z,10.50
2022-10-08T10:01:46.667Z,9.33
2022-10-08T10:04:37.654Z,11.77
2022-10-08T10:07:42.995Z,8.43
2022-10-08T10:10:51.848Z,7.77
2022-10-08T10:13:41.231Z,6.70
2022-10-08T10:16:36.905Z,9.00
2022-10-08T10:19:29.877Z,6.93
2022-10-08T10:22:50.112Z,5.87
2022-10-08T10:25:41.534Z,8.07
2022-10-08T10:28:56.358Z,7.87
2022-10-08T10:31:53.667Z,12.70
2022-10-08T10:34:45.346Z,8.03
2022-10-08T10:37:38.370Z,6.73
2022-10-08T10:40:36.189Z,8.80
2022-10-08T10:43:31.698Z,6.97
2022-10-08T10:46:39.859Z,7.07
2022-10-08T10:49:36.213Z,6.20
2022-10-08T10:52:32.005Z,7.47
2022-10-08T10:55:19.101Z,5.43
2022-10-08T10:58:30.535Z,6.50
2022-10-08T11:01:48.222Z,8.53
2022-10-08T11:04:47.571Z,5.07
2022-10-08T11:07:40.193Z,5.40
2022-10-08T11:10:56.621Z,5.30
2022-10-08T11:14:04.560Z,5.87
2022-10-08T11:16:54.457Z,3.87
2022-10-08T11:19:50.589Z,2.37
2022-10-08T11:22:43.543Z,1.73
2022-10-08T11:26:02.773Z,2.00
2022-10-08T11:29:13.136Z,2.73
2022-10-08T11:32:02.721Z,2.70
2022-10-08T11:35:06.375Z,1.97
2022-10-08T11:38:05.975Z,6.37
2022-10-08T11:41:20.261Z,6.10
2022-10-08T11:44:10.844Z,6.87
2022-10-08T11:47:35.372Z,3.63
2022-10-08T11:50:34.998Z,6.57
2022-10-08T11:53:22.741Z,4.87
2022-10-08T11:56:12.668Z,5.73
2022-10-08T11:59:07.049Z,3.37
2022-10-08T12:02:31.827Z,2.60
2022-10-08T12:05:21.896Z,4.07
2022-10-08T12:08:09.146Z,6.37
2022-10-08T12:10:56.156Z,2.77
2022-10-08T12:13:43.080Z,4.03
2022-10-08T12:16:48.536Z,5.53
2022-10-08T12:19:35.758Z,3.03
2022-10-08T12:22:25.329Z,4.17
2022-10-08T12:25:49.365Z,2.03
2022-10-08T12:28:36.300Z,4.37
2022-10-08T12:31:29.405Z,3.87
2022-10-08T12:34:21.917Z,3.90
2022-10-08T12:38:10.086Z,3.03
2022-10-08T12:40:56.965Z,5.17
2022-10-08T12:44:07.944Z,4.70
2022-10-08T12:47:09.790Z,5.27
2022-10-08T12:49:59.978Z,3.73
2022-10-08T12:52:47.173Z,5.17
2022-10-08T12:55:44.153Z,4.47
2022-10-08T12:58:35.844Z,4.73
2022-10-08T13:01:23.671Z,10.10
2022-10-08T13:04:22.720Z,11.57
2022-10-08T13:07:23.914Z,3.50
2022-10-08T13:10:26.942Z,3.37
2022-10-08T13:13:42.245Z,5.63
2022-10-08T13:16:46.316Z,4.17
2022-10-08T13:19:40.610Z,5.00
2022-10-08T13:22:27.598Z,2.63
2022-10-08T13:25:33.406Z,3.37
2022-10-08T13:28:41.676Z,2.63
2022-10-08T13:31:33.704Z,2.83
2022-10-08T13:34:21.562Z,4.10
2022-10-08T13:37:25.609Z,3.93
2022-10-08T13:40:13.013Z,4.47
2022-10-08T13:43:00.069Z,4.43
2022-10-08T13:45:47.334Z,7.63
2022-10-08T13:48:34.338Z,3.27
2022-10-08T13:51:21.489Z,4.77
2022-10-08T13:54:10.270Z,4.87
2022-10-08T13:56:57.571Z,6.00
2022-10-08T13:59:45.116Z,4.93
2022-10-08T14:02:32.595Z,2.97
2022-10-08T14:05:21.797Z,2.00
2022-10-08T14:08:38.948Z,5.57
2022-10-08T14:11:27.474Z,5.43
2022-10-08T14:14:16.205Z,5.47
2022-10-08T14:17:03.990Z,2.47
2022-10-08T14:19:51.944Z,5.40
2022-10-08T14:22:38.986Z,1.87
2022-10-08T14:25:28.525Z,3.73
2022-10-08T14:28:15.562Z,2.27
2022-10-08T14:31:02.636Z,4.20
2022-10-08T14:33:49.812Z,4.23
2022-10-08T14:36:40.120Z,0.90
2022-10-08T14:39:27.876Z,4.90
2022-10-08T14:42:14.782Z,4.30
2022-10-08T14:45:02.039Z,3.00
2022-10-08T14:47:49.072Z,3.47
2022-10-08T14:50:36.053Z,5.83
2022-10-08T14:53:22.968Z,4.50
2022-10-08T14:56:12.743Z,3.83
2022-10-08T14:59:00.132Z,4.13
2022-10-08T15:01:47.121Z,4.07
2022-10-08T15:04:34.070Z,4.37
2022-10-08T15:07:21.926Z,2.03
2022-10-08T15:10:09.134Z,2.03
2022-10-08T15:12:56.132Z,3.13
2022-10-08T15:15:45.639Z,6.60
2022-10-08T15:18:33.398Z,3.20
2022-10-08T15:21:20.706Z,3.60
2022-10-08T15:24:07.789Z,2.50
2022-10-08T15:26:54.694Z,7.00
2022-10-08T15:29:41.666Z,2.07
2022-10-08T15:32:30.639Z,2.60
2022-10-08T15:35:19.558Z,3.13
2022-10-08T15:38:06.514Z,5.43
2022-10-08T15:41:01.795Z,2.90
2022-10-08T15:43:48.794Z,3.37
2022-10-08T15:46:36.310Z,3.40
2022-10-08T15:49:23.261Z,5.40
2022-10-08T15:52:13.314Z,3.50
2022-10-08T15:55:00.656Z,3.20
2022-10-08T15:57:47.849Z,6.03
2022-10-08T16:00:38.115Z,4.10
2022-10-08T16:03:25.272Z,3.40
2022-10-08T16:06:15.313Z,4.63
2022-10-08T16:09:04.373Z,2.67
2022-10-08T16:11:51.985Z,4.90
2022-10-08T16:14:38.990Z,6.17
2022-10-08T16:17:26.978Z,5.23
2022-10-08T16:20:13.918Z,4.30
2022-10-08T16:23:00.903Z,4.50
2022-10-08T16:25:47.850Z,3.63
2022-10-08T16:28:37.404Z,3.23
2022-10-08T16:31:26.771Z,3.47
2022-10-08T16:34:17.128Z,2.80
2022-10-08T16:37:04.972Z,5.57
2022-10-08T16:39:51.903Z,5.23
2022-10-08T16:42:38.793Z,3.60
2022-10-08T16:45:25.729Z,5.40
2022-10-08T16:48:12.790Z,3.67
2022-10-08T16:51:02.948Z,2.83
2022-10-08T16:53:51.797Z,4.57
2022-10-08T16:56:40.663Z,4.43
2022-10-08T16:59:29.963Z,4.30
2022-10-08T17:02:17.516Z,5.60
2022-10-08T17:05:05.824Z,5.70
2022-10-08T17:07:53.785Z,3.67
2022-10-08T17:10:41.450Z,4.77
2022-10-08T17:13:29.373Z,8.27
2022-10-08T17:16:18.685Z,5.97
2022-10-08T17:19:06.452Z,3.40
2022-10-08T17:21:54.251Z,4.03
2022-10-08T17:24:42.507Z,4.47
2022-10-08T17:27:29.744Z,6.23
2022-10-08T17:30:17.408Z,5.43
2022-10-08T17:33:04.442Z,8.47
2022-10-08T17:36:02.463Z,3.33
2022-10-08T17:38:52.877Z,7.40
2022-10-08T17:41:41.253Z,9.73
2022-10-08T17:44:28.299Z,8.27
2022-10-08T17:47:15.339Z,10.07
2022-10-08T17:50:02.284Z,5.23
2022-10-08T17:52:49.495Z,10.13
2022-10-08T17:55:36.718Z,8.80
2022-10-08T17:58:23.645Z,8.27
2022-10-08T18:01:19.710Z,6.03
2022-10-08T18:04:10.310Z,4.20
2022-10-08T18:07:02.516Z,5.67
2022-10-08T18:09:50.368Z,5.70
2022-10-08T18:12:37.718Z,6.27
2022-10-08T18:15:26.152Z,10.37
2022-10-08T18:18:13.555Z,4.97
2022-10-08T18:21:04.603Z,11.90
2022-10-08T18:23:52.342Z,7.40
2022-10-08T18:26:40.328Z,6.03
2022-10-08T18:29:32.100Z,7.13
2022-10-08T18:32:20.451Z,8.27
2022-10-08T18:35:08.859Z,6.37
2022-10-08T18:37:57.907Z,6.97
2022-10-08T18:40:46.528Z,8.20
2022-10-08T18:43:39.507Z,5.80
2022-10-08T18:46:31.166Z,6.87
2022-10-08T18:49:22.014Z,6.47
2022-10-08T18:52:12.036Z,7.37
2022-10-08T18:55:04.616Z,6.33
2022-10-08T18:57:55.127Z,6.17
2022-10-08T19:00:45.506Z,7.17
2022-10-08T19:03:36.480Z,5.70
2022-10-08T19:06:29.390Z,5.73
2022-10-08T19:09:20.010Z,10.43
2022-10-08T19:12:08.773Z,6.43
2022-10-08T19:14:56.539Z,7.57
2022-10-08T19:17:44.159Z,8.17
2022-10-08T19:20:36.084Z,6.93
2022-10-08T19:23:26.588Z,5.70
2022-10-08T19:26:15.783Z,4.60
2022-10-08T19:29:03.882Z,6.67
2022-10-08T19:34:33.779Z,5.00
2022-10-08T19:37:21.866Z,8.53
2022-10-08T19:40:11.416Z,6.83
2022-10-08T19:42:59.264Z,6.20
2022-10-08T19:45:48.362Z,6.93
2022-10-08T19:48:36.781Z,3.97
2022-10-08T19:51:26.691Z,8.30
2022-10-08T19:54:15.395Z,10.30
2022-10-08T19:57:04.021Z,7.43
2022-10-08T19:59:53.685Z,8.83
2022-10-08T20:02:42.707Z,5.93
2022-10-08T20:05:35.494Z,6.70
2022-10-08T20:08:30.405Z,5.30
2022-10-08T20:11:24.991Z,6.10
2022-10-08T20:14:19.174Z,11.57
2022-10-08T20:20:33.412Z,8.87
2022-10-08T20:26:36.793Z,9.20
2022-10-08T20:29:37.195Z,9.73
2022-10-08T20:32:33.938Z,8.60
2022-10-08T20:35:24.217Z,10.63
2022-10-08T20:38:18.587Z,11.83
2022-10-08T20:41:10.537Z,11.70
2022-10-08T20:44:07.465Z,10.67
2022-10-08T20:46:58.720Z,10.50
2022-10-08T20:49:49.643Z,10.60
2022-10-08T20:52:38.429Z,7.90
2022-10-08T20:55:31.887Z,11.87
2022-10-08T20:58:25.793Z,8.63
2022-10-08T21:01:34.371Z,8.80
2022-10-08T21:07:51.331Z,8.30
2022-10-08T21:20:22.922Z,10.77
2022-10-08T21:23:15.430Z,10.17
2022-10-08T21:29:46.894Z,12.50
2022-10-08T21:32:42.137Z,9.40
2022-10-08T21:38:45.346Z,11.93
2022-10-08T21:41:37.919Z,13.20
2022-10-08T21:44:33.214Z,11.47
2022-10-08T21:47:33.984Z,9.67
2022-10-08T21:50:36.081Z,7.40
2022-10-08T21:53:46.755Z,12.90
2022-10-08T21:56:51.159Z,10.37
2022-10-08T22:02:58.826Z,9.80
2022-10-08T22:05:57.409Z,13.13
2022-10-08T22:08:54.753Z,11.93
2022-10-08T22:12:01.190Z,9.40
2022-10-08T22:14:54.830Z,9.67
2022-10-08T22:17:43.381Z,10.90
2022-10-08T22:20:38.804Z,12.03
2022-10-08T22:26:36.026Z,15.13
2022-10-08T22:29:27.517Z,13.20
2022-10-08T22:32:18.207Z,16.23
2022-10-08T22:35:09.698Z,12.07
2022-10-08T22:38:00.601Z,10.13
2022-10-08T22:40:55.922Z,10.50
2022-10-08T22:44:05.456Z,11.97
2022-10-08T22:46:54.564Z,12.17
2022-10-08T22:49:47.258Z,13.07
2022-10-08T22:52:34.914Z,10.07
2022-10-08T22:55:27.035Z,11.77
2022-10-08T22:58:16.430Z,15.47
2022-10-08T23:01:07.744Z,10.50
2022-10-08T23:04:03.766Z,18.03
2022-10-08T23:07:00.378Z,11.50
2022-10-08T23:09:51.794Z,14.60
2022-10-08T23:12:43.484Z,17.87
2022-10-08T23:15:32.192Z,14.17
2022-10-08T23:18:21.210Z,15.20
2022-10-08T23:21:13.312Z,14.47
2022-10-08T23:24:04.095Z,14.50
2022-10-08T23:26:54.800Z,16.00
2022-10-08T23:29:42.806Z,15.50
2022-10-08T23:32:30.852Z,16.43
2022-10-08T23:35:22.008Z,15.27
2022-10-08T23:38:11.884Z,14.03
2022-10-08T23:44:02.676Z,14.93
2022-10-08T23:46:52.034Z,13.50
2022-10-08T23:49:41.644Z,14.43
2022-10-08T23:52:32.331Z,16.60
2022-10-08T23:55:21.189Z,14.93
2022-10-08T23:58:09.715Z,19.40
